createdAt,value
2018-10-07T00:00:03.302Z,8.43
2018-10-07T00:01:06.785Z,8.00
2018-10-07T00:02:10.175Z,7.30
2018-10-07T00:03:13.617Z,8.10
2018-10-07T00:04:17.068Z,8.37
2018-10-07T00:05:20.467Z,8.53
2018-10-07T00:06:23.965Z,8.20
2018-10-07T00:07:27.414Z,8.40
2018-10-07T00:08:30.798Z,8.60
2018-10-07T00:09:34.216Z,8.30
2018-10-07T00:10:37.645Z,8.20
2018-10-07T00:11:41.190Z,8.83
2018-10-07T00:12:45.198Z,8.20
2018-10-07T00:13:48.594Z,8.47
2018-10-07T00:14:52.033Z,7.87
2018-10-07T00:15:55.424Z,7.60
2018-10-07T00:16:58.840Z,7.60
2018-10-07T00:18:02.221Z,7.50
2018-10-07T00:19:05.679Z,7.47
2018-10-07T00:20:09.108Z,7.90
2018-10-07T00:21:12.557Z,8.07
2018-10-07T00:22:16.006Z,8.10
2018-10-07T00:23:19.434Z,7.90
2018-10-07T00:24:22.974Z,8.30
2018-10-07T00:25:26.395Z,8.30
2018-10-07T00:26:29.820Z,7.47
2018-10-07T00:27:33.288Z,8.10
2018-10-07T00:28:36.782Z,7.30
2018-10-07T00:29:40.216Z,7.97
2018-10-07T00:30:43.657Z,7.77
2018-10-07T00:31:52.338Z,7.53
2018-10-07T00:32:55.735Z,7.03
2018-10-07T00:33:59.179Z,7.03
2018-10-07T00:35:02.616Z,8.07
2018-10-07T00:36:06.277Z,7.37
2018-10-07T00:37:09.956Z,7.20
2018-10-07T00:38:13.390Z,6.40
2018-10-07T00:39:16.785Z,6.73
2018-10-07T00:40:20.230Z,7.33
2018-10-07T00:41:23.651Z,7.73
2018-10-07T00:42:27.051Z,7.17
2018-10-07T00:43:30.525Z,6.80
2018-10-07T00:44:33.975Z,6.77
2018-10-07T00:45:37.629Z,6.90
2018-10-07T00:46:41.107Z,6.60
2018-10-07T00:47:44.568Z,7.33
2018-10-07T00:48:48.096Z,7.63
2018-10-07T00:49:51.532Z,6.67
2018-10-07T00:50:54.970Z,8.00
2018-10-07T00:51:58.387Z,7.73
2018-10-07T00:53:01.869Z,7.53
2018-10-07T00:54:05.360Z,6.90
2018-10-07T00:55:08.823Z,7.23
2018-10-07T00:56:12.453Z,6.83
2018-10-07T00:57:15.913Z,7.30
2018-10-07T00:58:19.350Z,6.70
2018-10-07T00:59:22.970Z,7.07
2018-10-07T01:00:26.402Z,7.07
2018-10-07T01:01:29.859Z,7.30
2018-10-07T01:02:33.285Z,7.50
2018-10-07T01:03:36.769Z,6.70
2018-10-07T01:04:40.222Z,6.83
2018-10-07T01:05:43.780Z,6.60
2018-10-07T01:06:47.310Z,6.83
2018-10-07T01:07:50.723Z,6.83
2018-10-07T01:08:54.180Z,6.80
2018-10-07T01:09:57.597Z,6.57
2018-10-07T01:11:01.000Z,6.40
2018-10-07T01:12:04.439Z,6.60
2018-10-07T01:13:07.933Z,6.07
2018-10-07T01:14:11.837Z,6.30
2018-10-07T01:15:15.250Z,6.77
2018-10-07T01:16:18.732Z,6.47
2018-10-07T01:17:22.257Z,6.47
2018-10-07T01:18:25.713Z,6.60
2018-10-07T01:19:29.121Z,7.00
2018-10-07T01:20:32.558Z,6.87
2018-10-07T01:21:36.147Z,5.87
2018-10-07T01:22:39.571Z,6.27
2018-10-07T01:23:43.040Z,7.10
2018-10-07T01:24:46.622Z,6.17
2018-10-07T01:25:50.201Z,7.03
2018-10-07T01:26:53.630Z,6.50
2018-10-07T01:27:57.051Z,6.03
2018-10-07T01:29:00.485Z,6.40
2018-10-07T01:30:03.982Z,6.77
2018-10-07T01:31:07.419Z,6.63
2018-10-07T01:32:10.835Z,6.40
2018-10-07T01:33:14.268Z,6.73
2018-10-07T01:34:17.742Z,6.70
2018-10-07T01:35:21.190Z,6.57
2018-10-07T01:36:24.625Z,5.50
2018-10-07T01:37:28.066Z,6.60
2018-10-07T01:38:31.446Z,5.93
2018-10-07T01:39:34.882Z,5.70
2018-10-07T01:40:38.628Z,6.00
2018-10-07T01:41:42.065Z,6.03
2018-10-07T01:42:45.617Z,6.27
2018-10-07T01:43:49.059Z,6.80
2018-10-07T01:44:52.467Z,5.80
2018-10-07T01:45:55.948Z,5.70
2018-10-07T01:46:59.381Z,6.27
2018-10-07T01:48:02.820Z,5.90
2018-10-07T01:49:06.294Z,6.40
2018-10-07T01:50:09.749Z,6.17
2018-10-07T01:51:13.186Z,5.60
2018-10-07T01:52:16.591Z,5.50
2018-10-07T01:53:20.093Z,5.30
2018-10-07T01:54:23.558Z,6.03
2018-10-07T01:55:26.973Z,6.30
2018-10-07T01:56:30.398Z,5.27
2018-10-07T01:57:33.852Z,5.77
2018-10-07T01:58:37.301Z,6.13
2018-10-07T01:59:41.033Z,5.77
2018-10-07T02:00:44.438Z,5.50
2018-10-07T02:01:47.839Z,5.80
2018-10-07T02:02:51.295Z,5.83
2018-10-07T02:03:54.740Z,5.37
2018-10-07T02:04:58.239Z,5.70
2018-10-07T02:06:01.678Z,6.30
2018-10-07T02:07:05.110Z,5.40
2018-10-07T02:08:08.611Z,5.80
2018-10-07T02:09:12.125Z,5.70
2018-10-07T02:10:15.519Z,5.20
2018-10-07T02:11:18.979Z,5.30
2018-10-07T02:12:22.593Z,5.57
2018-10-07T02:13:26.032Z,5.90
2018-10-07T02:14:29.457Z,5.20
2018-10-07T02:15:32.935Z,4.90
2018-10-07T02:16:36.356Z,5.57
2018-10-07T02:17:39.769Z,6.20
2018-10-07T02:18:43.198Z,5.67
2018-10-07T02:19:46.605Z,5.30
2018-10-07T02:20:50.102Z,5.37
2018-10-07T02:21:53.487Z,5.43
2018-10-07T02:22:56.903Z,5.10
2018-10-07T02:24:00.329Z,5.43
2018-10-07T02:25:03.774Z,5.57
2018-10-07T02:26:07.275Z,5.37
2018-10-07T02:27:10.792Z,5.80
2018-10-07T02:28:14.240Z,5.60
2018-10-07T02:29:17.772Z,5.73
2018-10-07T02:30:21.205Z,5.00
2018-10-07T02:31:24.601Z,4.53
2018-10-07T02:32:28.018Z,5.70
2018-10-07T02:33:31.429Z,4.67
2018-10-07T02:34:35.224Z,4.90
2018-10-07T02:35:38.667Z,4.70
2018-10-07T02:36:42.105Z,4.97
2018-10-07T02:37:45.546Z,4.83
2018-10-07T02:38:48.980Z,5.70
2018-10-07T02:39:52.457Z,5.80
2018-10-07T02:40:55.874Z,4.77
2018-10-07T02:41:59.290Z,5.33
2018-10-07T02:43:02.715Z,4.97
2018-10-07T02:44:06.190Z,4.47
2018-10-07T02:45:09.690Z,5.03
2018-10-07T02:46:13.137Z,4.67
2018-10-07T02:47:16.566Z,4.90
2018-10-07T02:48:20.001Z,4.87
2018-10-07T02:49:23.445Z,4.90
2018-10-07T02:50:26.866Z,5.00
2018-10-07T02:51:30.419Z,5.10
2018-10-07T02:52:39.031Z,4.80
2018-10-07T02:53:42.495Z,5.33
2018-10-07T02:54:46.055Z,4.60
2018-10-07T02:55:49.565Z,4.90
2018-10-07T02:56:53.128Z,4.77
2018-10-07T02:57:57.813Z,4.20
2018-10-07T02:59:01.279Z,4.90
2018-10-07T03:00:04.796Z,4.57
2018-10-07T03:01:08.358Z,5.00
2018-10-07T03:02:11.797Z,4.77
2018-10-07T03:03:15.228Z,4.83
2018-10-07T03:04:18.654Z,4.67
2018-10-07T03:05:22.119Z,4.53
2018-10-07T03:06:25.563Z,4.60
2018-10-07T03:07:28.974Z,4.97
2018-10-07T03:08:32.432Z,5.07
2018-10-07T03:09:35.943Z,4.67
2018-10-07T03:10:39.424Z,4.80
2018-10-07T03:11:42.865Z,4.87
2018-10-07T03:12:46.289Z,4.50
2018-10-07T03:13:49.716Z,4.80
2018-10-07T03:14:53.152Z,4.43
2018-10-07T03:15:56.573Z,4.03
2018-10-07T03:16:59.993Z,4.97
2018-10-07T03:18:03.396Z,4.97
2018-10-07T03:19:06.891Z,4.43
2018-10-07T03:20:10.287Z,4.87
2018-10-07T03:21:13.752Z,4.67
2018-10-07T03:22:17.214Z,5.20
2018-10-07T03:23:20.630Z,4.30
2018-10-07T03:24:24.054Z,5.00
2018-10-07T03:25:27.490Z,4.77
2018-10-07T03:26:31.013Z,4.40
2018-10-07T03:27:34.555Z,4.20
2018-10-07T03:28:38.022Z,4.30
2018-10-07T03:29:41.463Z,4.83
2018-10-07T03:30:44.854Z,5.07
2018-10-07T03:31:48.278Z,4.70
2018-10-07T03:32:51.762Z,4.37
2018-10-07T03:33:55.381Z,4.60
2018-10-07T03:34:58.787Z,4.90
2018-10-07T03:36:02.206Z,4.37
2018-10-07T03:37:05.675Z,4.50
2018-10-07T03:38:09.198Z,4.47
2018-10-07T03:39:12.590Z,4.40
2018-10-07T03:40:16.018Z,4.00
2018-10-07T03:41:19.472Z,4.10
2018-10-07T03:42:22.904Z,4.70
2018-10-07T03:43:26.444Z,4.40
2018-10-07T03:44:29.844Z,4.90
2018-10-07T03:45:33.239Z,4.20
2018-10-07T03:46:36.650Z,4.40
2018-10-07T03:47:40.175Z,4.67
2018-10-07T03:48:43.621Z,4.47
2018-10-07T03:49:47.060Z,4.37
2018-10-07T03:50:50.665Z,4.73
2018-10-07T03:51:54.087Z,4.77
2018-10-07T03:52:57.521Z,3.97
2018-10-07T03:54:00.962Z,4.30
2018-10-07T03:55:04.503Z,3.90
2018-10-07T03:56:08.040Z,4.37
2018-10-07T03:57:11.496Z,3.77
2018-10-07T03:58:14.996Z,4.23
2018-10-07T03:59:18.458Z,4.30
2018-10-07T04:00:21.890Z,4.67
2018-10-07T04:01:25.437Z,4.50
2018-10-07T04:02:30.393Z,3.90
2018-10-07T04:03:33.863Z,4.00
2018-10-07T04:04:37.649Z,3.70
2018-10-07T04:05:41.066Z,3.93
2018-10-07T04:06:44.478Z,3.70
2018-10-07T04:07:48.005Z,4.00
2018-10-07T04:08:51.544Z,4.00
2018-10-07T04:09:55.006Z,3.90
2018-10-07T04:10:58.433Z,4.33
2018-10-07T04:12:01.865Z,4.47
2018-10-07T04:13:05.300Z,3.70
2018-10-07T04:14:08.939Z,3.97
2018-10-07T04:15:12.426Z,3.70
2018-10-07T04:16:15.831Z,3.93
2018-10-07T04:17:19.240Z,3.83
2018-10-07T04:18:22.640Z,4.23
2018-10-07T04:19:26.042Z,3.80
2018-10-07T04:20:29.486Z,4.53
2018-10-07T04:21:33.090Z,4.00
2018-10-07T04:22:36.494Z,3.67
2018-10-07T04:23:39.958Z,3.60
2018-10-07T04:24:43.440Z,4.37
2018-10-07T04:25:46.871Z,4.60
2018-10-07T04:26:50.359Z,4.10
2018-10-07T04:27:53.843Z,4.10
2018-10-07T04:28:57.332Z,3.60
2018-10-07T04:30:00.751Z,4.13
2018-10-07T04:31:04.151Z,4.00
2018-10-07T04:32:07.588Z,3.50
2018-10-07T04:33:10.963Z,4.03
2018-10-07T04:34:14.424Z,4.30
2018-10-07T04:35:17.828Z,3.90
2018-10-07T04:36:21.309Z,3.77
2018-10-07T04:37:24.737Z,4.10
2018-10-07T04:38:28.165Z,3.60
2018-10-07T04:39:31.578Z,4.00
2018-10-07T04:40:35.021Z,3.73
2018-10-07T04:41:38.522Z,3.67
2018-10-07T04:42:41.950Z,4.20
2018-10-07T04:43:45.406Z,3.87
2018-10-07T04:44:48.886Z,3.67
2018-10-07T04:45:52.298Z,3.77
2018-10-07T04:46:55.704Z,3.50
2018-10-07T04:47:59.102Z,3.53
2018-10-07T04:49:02.809Z,3.33
2018-10-07T04:50:07.166Z,3.97
2018-10-07T04:51:10.628Z,4.20
2018-10-07T04:52:14.092Z,4.47
2018-10-07T04:53:17.503Z,3.70
2018-10-07T04:54:21.182Z,3.67
2018-10-07T04:55:24.613Z,3.60
2018-10-07T04:56:28.066Z,4.10
2018-10-07T04:57:31.502Z,3.97
2018-10-07T04:58:34.896Z,3.57
2018-10-07T04:59:38.315Z,3.37
2018-10-07T05:00:41.809Z,3.53
2018-10-07T05:01:45.214Z,3.90
2018-10-07T05:02:48.651Z,3.50
2018-10-07T05:03:52.427Z,3.70
2018-10-07T05:04:56.633Z,4.10
2018-10-07T05:06:00.181Z,3.50
2018-10-07T05:07:03.730Z,3.60
2018-10-07T05:08:07.893Z,3.73
2018-10-07T05:09:11.993Z,3.77
2018-10-07T05:10:26.304Z,3.93
2018-10-07T05:11:30.087Z,4.10
2018-10-07T05:12:33.618Z,3.70
2018-10-07T05:13:47.357Z,3.30
2018-10-07T05:14:50.897Z,5.00
2018-10-07T05:15:55.965Z,3.30
2018-10-07T05:16:59.479Z,3.60
2018-10-07T05:18:02.995Z,3.47
2018-10-07T05:19:07.246Z,3.70
2018-10-07T05:20:10.698Z,3.50
2018-10-07T05:21:14.198Z,3.50
2018-10-07T05:22:17.603Z,3.50
2018-10-07T05:23:21.214Z,3.60
2018-10-07T05:24:24.666Z,3.30
2018-10-07T05:25:28.178Z,3.60
2018-10-07T05:26:31.659Z,3.47
2018-10-07T05:27:35.241Z,3.13
2018-10-07T05:28:38.822Z,3.13
2018-10-07T05:29:42.302Z,3.27
2018-10-07T05:30:45.791Z,3.67
2018-10-07T05:31:49.324Z,3.43
2018-10-07T05:32:52.769Z,3.40
2018-10-07T05:33:56.195Z,4.00
2018-10-07T05:34:59.786Z,3.70
2018-10-07T05:36:03.232Z,4.00
2018-10-07T05:37:06.733Z,3.20
2018-10-07T05:38:10.382Z,3.47
2018-10-07T05:39:13.964Z,4.13
2018-10-07T05:40:17.416Z,3.40
2018-10-07T05:41:20.847Z,3.63
2018-10-07T05:42:24.504Z,3.60
2018-10-07T05:43:27.972Z,3.33
2018-10-07T05:44:31.489Z,3.20
2018-10-07T05:45:34.966Z,2.90
2018-10-07T05:46:38.378Z,3.43
2018-10-07T05:47:41.804Z,3.30
2018-10-07T05:48:45.463Z,3.10
2018-10-07T05:49:49.004Z,3.20
2018-10-07T05:50:52.461Z,3.23
2018-10-07T05:51:55.882Z,3.10
2018-10-07T05:52:59.331Z,3.43
2018-10-07T05:54:02.748Z,3.07
2018-10-07T05:55:06.313Z,3.53
2018-10-07T05:56:09.774Z,2.83
2018-10-07T05:57:13.276Z,3.70
2018-10-07T05:58:16.753Z,3.40
2018-10-07T05:59:20.266Z,3.50
2018-10-07T06:00:23.779Z,3.10
2018-10-07T06:01:36.076Z,3.10
2018-10-07T06:02:41.624Z,3.30
2018-10-07T06:04:51.981Z,3.10
2018-10-07T06:05:55.398Z,3.70
2018-10-07T06:07:02.287Z,2.80
2018-10-07T06:08:05.894Z,3.73
2018-10-07T06:09:19.586Z,3.53
2018-10-07T06:10:23.044Z,3.23
2018-10-07T06:11:26.567Z,3.27
2018-10-07T06:12:30.032Z,2.90
2018-10-07T06:13:33.549Z,2.87
2018-10-07T06:14:48.243Z,3.70
2018-10-07T06:15:51.693Z,3.60
2018-10-07T06:16:55.129Z,3.30
2018-10-07T06:17:58.847Z,3.37
2018-10-07T06:19:02.408Z,2.67
2018-10-07T06:20:05.961Z,2.80
2018-10-07T06:21:09.549Z,3.23
2018-10-07T06:22:13.072Z,3.30
2018-10-07T06:23:16.548Z,3.30
2018-10-07T06:24:20.070Z,2.63
2018-10-07T06:25:23.549Z,3.57
2018-10-07T06:26:26.988Z,3.20
2018-10-07T06:27:30.545Z,2.50
2018-10-07T06:28:33.966Z,3.07
2018-10-07T06:29:37.460Z,3.10
2018-10-07T06:30:40.937Z,3.33
2018-10-07T06:31:44.879Z,3.10
2018-10-07T06:32:48.351Z,2.90
2018-10-07T06:33:51.858Z,3.00
2018-10-07T06:34:55.350Z,3.57
2018-10-07T06:35:58.804Z,3.23
2018-10-07T06:37:02.328Z,3.07
2018-10-07T06:38:05.784Z,3.07
2018-10-07T06:39:09.258Z,2.70
2018-10-07T06:40:12.841Z,3.10
2018-10-07T06:41:16.318Z,3.37
2018-10-07T06:42:19.813Z,2.80
2018-10-07T06:43:23.467Z,2.70
2018-10-07T06:44:26.955Z,3.07
2018-10-07T06:45:30.465Z,3.30
2018-10-07T06:46:33.872Z,2.90
2018-10-07T06:47:37.415Z,2.73
2018-10-07T06:48:40.872Z,3.07
2018-10-07T06:49:44.287Z,2.50
2018-10-07T06:50:47.768Z,2.90
2018-10-07T06:51:51.635Z,3.00
2018-10-07T06:52:55.060Z,3.03
2018-10-07T06:53:58.477Z,2.90
2018-10-07T06:55:01.974Z,2.90
2018-10-07T06:56:05.478Z,2.87
2018-10-07T06:57:09.021Z,2.67
2018-10-07T06:58:12.481Z,2.90
2018-10-07T06:59:15.925Z,2.80
2018-10-07T07:00:19.486Z,2.40
2018-10-07T07:01:22.974Z,3.20
2018-10-07T07:02:26.500Z,2.50
2018-10-07T07:03:29.929Z,2.70
2018-10-07T07:04:33.365Z,3.23
2018-10-07T07:05:36.878Z,3.10
2018-10-07T07:06:41.763Z,3.30
2018-10-07T07:07:45.469Z,2.77
2018-10-07T07:08:48.938Z,2.67
2018-10-07T07:09:52.723Z,3.17
2018-10-07T07:10:56.139Z,3.07
2018-10-07T07:11:59.711Z,3.07
2018-10-07T07:13:03.314Z,3.17
2018-10-07T07:14:06.993Z,3.30
2018-10-07T07:15:10.583Z,3.27
2018-10-07T07:16:14.074Z,3.10
2018-10-07T07:17:17.485Z,3.57
2018-10-07T07:18:21.362Z,3.50
2018-10-07T07:19:25.163Z,3.27
2018-10-07T07:20:28.616Z,3.90
2018-10-07T07:21:32.696Z,3.53
2018-10-07T07:22:36.945Z,3.43
2018-10-07T07:23:40.763Z,3.57
2018-10-07T07:24:44.647Z,3.20
2018-10-07T07:25:48.163Z,3.67
2018-10-07T07:26:51.667Z,3.90
2018-10-07T07:27:55.083Z,3.80
2018-10-07T07:28:58.506Z,3.40
2018-10-07T07:30:01.935Z,6.70
2018-10-07T07:31:05.364Z,4.87
2018-10-07T07:32:08.803Z,6.30
2018-10-07T07:33:12.302Z,6.80
2018-10-07T07:34:15.722Z,6.40
2018-10-07T07:35:19.229Z,6.37
2018-10-07T07:36:22.673Z,6.23
2018-10-07T07:37:26.113Z,6.73
2018-10-07T07:38:29.611Z,11.40
2018-10-07T07:39:33.125Z,11.50
2018-10-07T07:40:37.561Z,11.37
2018-10-07T07:41:41.104Z,10.17
2018-10-07T07:42:49.198Z,12.20
2018-10-07T07:43:53.985Z,11.20
2018-10-07T07:44:57.918Z,11.60
2018-10-07T07:46:02.506Z,11.20
2018-10-07T07:47:06.906Z,10.90
2018-10-07T07:48:11.156Z,10.77
2018-10-07T07:49:15.581Z,11.37
2018-10-07T07:50:20.631Z,11.17
2018-10-07T07:51:24.108Z,10.80
2018-10-07T07:52:28.070Z,10.23
2018-10-07T07:53:32.136Z,10.80
2018-10-07T07:54:35.719Z,9.87
2018-10-07T07:55:39.531Z,10.53
2018-10-07T07:56:44.019Z,10.17
2018-10-07T07:57:47.605Z,9.97
2018-10-07T07:58:51.193Z,10.07
2018-10-07T07:59:55.071Z,9.53
2018-10-07T08:00:59.872Z,9.50
2018-10-07T08:02:03.770Z,8.83
2018-10-07T08:03:07.388Z,8.83
2018-10-07T08:04:10.857Z,9.67
2018-10-07T08:05:14.344Z,9.50
2018-10-07T08:06:17.807Z,8.63
2018-10-07T08:07:21.262Z,10.10
2018-10-07T08:08:24.787Z,9.27
2018-10-07T08:09:28.308Z,8.03
2018-10-07T08:10:31.780Z,7.27
2018-10-07T08:11:35.224Z,8.30
2018-10-07T08:12:38.803Z,13.03
2018-10-07T08:13:42.291Z,9.90
2018-10-07T08:14:45.719Z,11.07
2018-10-07T08:15:49.247Z,10.20
2018-10-07T08:16:52.773Z,11.77
2018-10-07T08:17:56.309Z,10.20
2018-10-07T08:18:59.820Z,9.10
2018-10-07T08:20:03.365Z,9.50
2018-10-07T08:21:07.049Z,9.27
2018-10-07T08:22:10.486Z,9.87
2018-10-07T08:23:13.985Z,9.37
2018-10-07T08:24:17.407Z,9.37
2018-10-07T08:25:20.870Z,8.70
2018-10-07T08:26:24.441Z,8.30
2018-10-07T08:27:27.863Z,8.30
2018-10-07T08:28:31.332Z,8.63
2018-10-07T08:29:34.839Z,7.23
2018-10-07T08:30:38.258Z,6.77
2018-10-07T08:31:41.816Z,7.13
2018-10-07T08:32:45.269Z,7.07
2018-10-07T08:33:49.184Z,7.30
2018-10-07T08:34:52.667Z,7.60
2018-10-07T08:35:56.141Z,6.83
2018-10-07T08:36:59.563Z,6.90
2018-10-07T08:38:03.061Z,7.20
2018-10-07T08:39:08.705Z,7.43
2018-10-07T08:40:12.185Z,6.47
2018-10-07T08:41:15.626Z,6.13
2018-10-07T08:42:19.056Z,6.10
2018-10-07T08:43:22.630Z,6.00
2018-10-07T08:44:26.056Z,5.50
2018-10-07T08:45:29.525Z,6.10
2018-10-07T08:46:33.010Z,6.20
2018-10-07T08:47:36.444Z,5.77
2018-10-07T08:48:39.895Z,5.63
2018-10-07T08:49:43.389Z,5.07
2018-10-07T08:50:46.868Z,5.70
2018-10-07T08:51:50.484Z,5.50
2018-10-07T08:52:54.016Z,5.53
2018-10-07T08:53:57.492Z,4.60
2018-10-07T08:55:01.032Z,5.00
2018-10-07T08:56:04.527Z,5.10
2018-10-07T08:57:08.622Z,5.40
2018-10-07T08:58:12.033Z,5.30
2018-10-07T08:59:15.745Z,4.87
2018-10-07T09:00:19.193Z,4.50
2018-10-07T09:01:22.701Z,4.73
2018-10-07T09:02:26.192Z,5.50
2018-10-07T09:03:29.654Z,5.07
2018-10-07T09:04:33.157Z,4.70
2018-10-07T09:05:36.617Z,5.20
2018-10-07T09:06:40.065Z,4.80
2018-10-07T09:07:43.541Z,5.93
2018-10-07T09:08:47.019Z,5.40
2018-10-07T09:09:50.509Z,5.60
2018-10-07T09:10:53.982Z,6.53
2018-10-07T09:11:57.454Z,6.37
2018-10-07T09:13:00.889Z,5.70
2018-10-07T09:14:04.346Z,6.00
2018-10-07T09:15:08.080Z,6.27
2018-10-07T09:16:11.648Z,5.77
2018-10-07T09:17:15.150Z,5.50
2018-10-07T09:18:18.735Z,5.73
2018-10-07T09:19:22.177Z,5.63
2018-10-07T09:20:25.626Z,5.57
2018-10-07T09:21:29.071Z,5.30
2018-10-07T09:22:32.541Z,5.90
2018-10-07T09:23:36.051Z,4.80
2018-10-07T09:24:39.480Z,5.83
2018-10-07T09:25:42.924Z,5.37
2018-10-07T09:26:46.368Z,5.00
2018-10-07T09:27:51.016Z,4.73
2018-10-07T09:28:56.136Z,5.30
2018-10-07T09:29:59.838Z,4.70
2018-10-07T09:31:03.295Z,5.37
2018-10-07T09:32:06.806Z,5.30
2018-10-07T09:33:10.455Z,4.30
2018-10-07T09:34:14.365Z,5.10
2018-10-07T09:35:29.599Z,5.73
2018-10-07T09:36:33.090Z,4.60
2018-10-07T09:37:36.506Z,4.37
2018-10-07T09:38:39.973Z,4.30
2018-10-07T09:39:43.584Z,4.30
2018-10-07T09:40:47.113Z,5.00
2018-10-07T09:41:50.806Z,4.70
2018-10-07T09:42:54.252Z,4.67
2018-10-07T09:43:57.678Z,4.10
2018-10-07T09:45:01.160Z,4.67
2018-10-07T09:46:04.658Z,4.60
2018-10-07T09:47:08.228Z,4.67
2018-10-07T09:48:11.802Z,4.30
2018-10-07T09:49:15.435Z,4.57
2018-10-07T09:50:18.928Z,4.73
2018-10-07T09:51:22.372Z,4.00
2018-10-07T09:52:25.957Z,4.40
2018-10-07T09:53:29.318Z,4.80
2018-10-07T09:54:32.793Z,3.73
2018-10-07T09:55:36.328Z,4.50
2018-10-07T09:56:39.800Z,3.80
2018-10-07T09:57:43.222Z,4.50
2018-10-07T09:58:46.694Z,4.40
2018-10-07T09:59:50.192Z,4.53
2018-10-07T10:00:53.816Z,4.23
2018-10-07T10:01:57.294Z,3.90
2018-10-07T10:03:00.733Z,4.30
2018-10-07T10:04:04.215Z,4.30
2018-10-07T10:05:07.729Z,4.27
2018-10-07T10:06:11.164Z,4.07
2018-10-07T10:07:14.774Z,4.03
2018-10-07T10:08:18.151Z,4.30
2018-10-07T10:09:21.612Z,4.00
2018-10-07T10:10:25.011Z,3.73
2018-10-07T10:11:28.470Z,4.30
2018-10-07T10:12:31.923Z,3.97
2018-10-07T10:13:35.577Z,4.00
2018-10-07T10:14:39.007Z,4.37
2018-10-07T10:15:42.478Z,3.53
2018-10-07T10:16:50.613Z,3.50
2018-10-07T10:19:00.831Z,3.50
2018-10-07T10:20:07.622Z,4.00
2018-10-07T10:21:47.038Z,4.20
2018-10-07T10:23:25.873Z,3.77
2018-10-07T10:24:43.127Z,3.93
2018-10-07T10:27:22.669Z,3.60
2018-10-07T10:28:33.555Z,3.27
2018-10-07T10:29:41.722Z,4.00
2018-10-07T10:31:20.338Z,3.50
2018-10-07T10:32:33.288Z,3.73
2018-10-07T10:33:41.161Z,3.63
2018-10-07T10:37:08.530Z,4.20
2018-10-07T10:38:18.852Z,3.60
2018-10-07T10:39:28.718Z,3.47
2018-10-07T10:40:38.635Z,3.30
2018-10-07T10:42:55.025Z,3.53
2018-10-07T10:44:04.207Z,3.33
2018-10-07T10:45:08.099Z,4.20
2018-10-07T10:46:15.515Z,3.27
2018-10-07T10:47:36.955Z,2.83
2018-10-07T10:49:53.259Z,3.50
2018-10-07T10:51:35.075Z,3.10
2018-10-07T10:53:19.281Z,3.30
2018-10-07T10:54:42.950Z,3.10
2018-10-07T10:56:25.298Z,3.27
2018-10-07T10:57:35.695Z,3.10
2018-10-07T10:58:46.091Z,2.80
2018-10-07T11:00:22.521Z,2.90
2018-10-07T11:02:41.569Z,3.10
2018-10-07T11:03:54.757Z,2.90
2018-10-07T11:05:10.565Z,3.07
2018-10-07T11:06:21.854Z,2.90
2018-10-07T11:08:30.876Z,3.00
2018-10-07T11:09:52.537Z,2.93
2018-10-07T11:11:08.566Z,3.10
2018-10-07T11:12:48.779Z,2.40
2018-10-07T11:13:58.850Z,2.80
2018-10-07T11:15:09.688Z,2.80
2018-10-07T11:19:28.647Z,3.13
2018-10-07T11:20:48.506Z,4.53
2018-10-07T11:21:57.192Z,3.80
2018-10-07T11:23:13.331Z,3.63
2018-10-07T11:24:20.934Z,3.80
2018-10-07T11:27:52.601Z,3.30
2018-10-07T11:29:05.956Z,2.77
2018-10-07T11:30:21.989Z,3.47
2018-10-07T11:31:31.932Z,2.53
2018-10-07T11:32:46.695Z,3.17
2018-10-07T11:35:02.705Z,2.83
2018-10-07T11:38:18.746Z,3.20
2018-10-07T11:39:33.703Z,2.30
2018-10-07T11:40:45.844Z,3.03
2018-10-07T11:42:03.629Z,3.07
2018-10-07T11:43:17.165Z,2.67
2018-10-07T11:44:57.555Z,2.83
2018-10-07T11:50:34.740Z,9.10
2018-10-07T11:51:47.422Z,39.30
2018-10-07T11:53:02.210Z,51.97
2018-10-07T11:54:10.914Z,60.13
2018-10-07T11:55:14.487Z,61.43
2018-10-07T11:56:18.110Z,60.63
2018-10-07T11:57:21.772Z,61.33
2018-10-07T11:58:25.266Z,59.53
2018-10-07T11:59:28.749Z,59.47
2018-10-07T12:00:32.236Z,60.87
2018-10-07T12:01:35.921Z,56.10
2018-10-07T12:02:39.422Z,60.07
2018-10-07T12:03:42.834Z,57.50
2018-10-07T12:04:46.334Z,56.50
2018-10-07T12:05:49.821Z,54.40
2018-10-07T12:06:53.380Z,47.83
2018-10-07T12:07:56.925Z,45.27
2018-10-07T12:09:00.405Z,44.17
2018-10-07T12:10:04.037Z,39.20
2018-10-07T12:11:07.843Z,37.90
2018-10-07T12:12:11.288Z,37.43
2018-10-07T12:13:14.988Z,37.70
2018-10-07T12:14:18.928Z,35.60
2018-10-07T12:15:22.679Z,37.10
2018-10-07T12:16:26.200Z,37.00
2018-10-07T12:17:30.280Z,36.27
2018-10-07T12:18:33.909Z,36.03
2018-10-07T12:19:37.543Z,35.13
2018-10-07T12:20:40.992Z,31.27
2018-10-07T12:21:44.474Z,33.03
2018-10-07T12:22:47.988Z,29.90
2018-10-07T12:23:51.598Z,26.33
2018-10-07T12:24:55.130Z,27.97
2018-10-07T12:25:58.616Z,23.90
2018-10-07T12:27:02.144Z,20.23
2018-10-07T12:28:06.000Z,20.47
2018-10-07T12:29:09.448Z,17.50
2018-10-07T12:30:12.933Z,17.50
2018-10-07T12:31:16.404Z,16.20
2018-10-07T12:32:20.106Z,16.07
2018-10-07T12:33:24.951Z,15.73
2018-10-07T12:34:28.407Z,15.30
2018-10-07T12:35:31.922Z,15.70
2018-10-07T12:36:35.483Z,14.93
2018-10-07T12:37:38.986Z,14.90
2018-10-07T12:38:42.492Z,14.83
2018-10-07T12:39:46.070Z,13.10
2018-10-07T12:40:49.587Z,13.50
2018-10-07T12:41:53.192Z,13.27
2018-10-07T12:42:56.651Z,13.00
2018-10-07T12:44:00.239Z,12.67
2018-10-07T12:45:03.740Z,12.80
2018-10-07T12:46:07.225Z,11.57
2018-10-07T12:47:10.819Z,11.20
2018-10-07T12:48:14.712Z,12.53
2018-10-07T12:49:18.222Z,10.67
2018-10-07T12:50:22.035Z,10.97
2018-10-07T12:51:26.072Z,10.90
2018-10-07T12:52:29.536Z,11.13
2018-10-07T12:53:32.993Z,10.83
2018-10-07T12:54:36.552Z,10.07
2018-10-07T12:55:39.881Z,10.30
2018-10-07T12:56:43.336Z,10.43
2018-10-07T12:57:46.781Z,9.70
2018-10-07T12:58:50.232Z,9.30
2018-10-07T12:59:53.702Z,8.97
2018-10-07T13:00:57.117Z,9.83
2018-10-07T13:02:00.584Z,8.87
2018-10-07T13:03:04.069Z,8.67
2018-10-07T13:04:07.508Z,8.03
2018-10-07T13:05:10.957Z,9.00
2018-10-07T13:06:14.428Z,8.70
2018-10-07T13:07:17.894Z,8.40
2018-10-07T13:08:21.537Z,9.40
2018-10-07T13:09:25.025Z,7.90
2018-10-07T13:10:28.459Z,7.27
2018-10-07T13:11:31.922Z,7.63
2018-10-07T13:12:35.395Z,7.87
2018-10-07T13:13:38.852Z,7.40
2018-10-07T13:14:42.289Z,7.13
2018-10-07T13:15:45.718Z,7.30
2018-10-07T13:16:49.216Z,6.80
2018-10-07T13:17:52.782Z,6.60
2018-10-07T13:18:56.275Z,7.20
2018-10-07T13:20:00.020Z,7.40
2018-10-07T13:21:03.494Z,6.60
2018-10-07T13:22:06.950Z,6.10
2018-10-07T13:23:10.373Z,6.50
2018-10-07T13:24:13.824Z,6.40
2018-10-07T13:25:17.214Z,6.13
2018-10-07T13:26:20.713Z,7.40
2018-10-07T13:27:24.186Z,5.77
2018-10-07T13:28:27.626Z,5.97
2018-10-07T13:29:31.134Z,6.50
2018-10-07T13:30:34.573Z,6.27
2018-10-07T13:31:38.055Z,5.60
2018-10-07T13:32:41.559Z,6.07
2018-10-07T13:33:45.082Z,6.10
2018-10-07T13:34:48.489Z,5.90
2018-10-07T13:35:51.987Z,5.47
2018-10-07T13:36:55.478Z,6.00
2018-10-07T13:37:58.896Z,6.00
2018-10-07T13:39:02.359Z,6.00
2018-10-07T13:40:06.056Z,6.27
2018-10-07T13:41:09.489Z,5.50
2018-10-07T13:42:12.958Z,4.77
2018-10-07T13:43:16.384Z,5.53
2018-10-07T13:44:19.982Z,5.43
2018-10-07T13:45:23.456Z,5.50
2018-10-07T13:46:26.897Z,5.60
2018-10-07T13:47:30.309Z,5.60
2018-10-07T13:48:33.726Z,5.10
2018-10-07T13:49:37.138Z,5.27
2018-10-07T13:50:40.648Z,5.53
2018-10-07T13:51:44.110Z,5.37
2018-10-07T13:52:47.523Z,4.90
2018-10-07T13:53:50.973Z,5.30
2018-10-07T13:54:54.494Z,5.27
2018-10-07T13:55:57.969Z,5.13
2018-10-07T13:57:01.448Z,4.47
2018-10-07T13:58:04.938Z,4.90
2018-10-07T13:59:08.405Z,5.00
2018-10-07T14:00:11.792Z,4.00
2018-10-07T14:01:15.246Z,4.93
2018-10-07T14:02:18.689Z,4.73
2018-10-07T14:03:22.292Z,4.83
2018-10-07T14:04:25.918Z,4.77
2018-10-07T14:05:29.444Z,4.67
2018-10-07T14:06:32.961Z,4.80
2018-10-07T14:07:36.448Z,4.63
2018-10-07T14:08:40.075Z,5.27
2018-10-07T14:09:43.700Z,4.47
2018-10-07T14:10:47.138Z,4.40
2018-10-07T14:11:50.732Z,3.97
2018-10-07T14:12:54.252Z,4.73
2018-10-07T14:13:57.692Z,4.97
2018-10-07T14:15:01.125Z,4.87
2018-10-07T14:16:04.595Z,4.27
2018-10-07T14:17:08.028Z,4.10
2018-10-07T14:18:11.453Z,4.60
2018-10-07T14:19:15.032Z,4.37
2018-10-07T14:20:18.826Z,4.40
2018-10-07T14:21:22.344Z,4.10
2018-10-07T14:22:25.893Z,3.70
2018-10-07T14:23:29.368Z,3.43
2018-10-07T14:24:32.822Z,3.47
2018-10-07T14:25:36.259Z,3.93
2018-10-07T14:26:39.682Z,3.90
2018-10-07T14:27:43.122Z,3.60
2018-10-07T14:28:46.643Z,4.13
2018-10-07T14:29:51.966Z,3.00
2018-10-07T14:30:55.675Z,3.67
2018-10-07T14:31:59.148Z,3.00
2018-10-07T14:33:02.571Z,3.60
2018-10-07T14:34:06.049Z,3.10
2018-10-07T14:35:09.734Z,3.30
2018-10-07T14:36:13.166Z,2.97
2018-10-07T14:37:16.682Z,2.73
2018-10-07T14:38:20.188Z,3.50
2018-10-07T14:39:23.718Z,2.53